Time;durP1;ratioP1;P1;durP2;ratioP2;P2;SDS_P1;SDS_P2;PMS_P1;PMS_P2;Temp;Humidity;BMP_temperature;BMP_pressure;BME280_temperature;BME280_humidity;BME280_pressure;Samples;Min_cycle;Max_cycle;Signal;HPM_P1;HPM_P2
2022/07/31 00:01:52;;;;;;;9.10;5.00;;;23.30;99.90;;;;;;4966953;28;20221;-77
2022/07/31 00:04:19;;;;;;;6.72;4.20;;;23.40;99.90;;;;;;4967768;28;20198;-76
2022/07/31 00:06:45;;;;;;;5.70;3.85;;;23.40;99.90;;;;;;4974147;28;20202;-76
2022/07/31 00:09:11;;;;;;;4.67;3.40;;;23.40;99.90;;;;;;4983473;28;20221;-77
2022/07/31 00:11:38;;;;;;;5.90;3.13;;;23.30;99.90;;;;;;4966991;28;20309;-77
2022/07/31 00:14:05;;;;;;;4.57;2.77;;;23.20;99.90;;;;;;4967252;28;20716;-77
2022/07/31 00:16:32;;;;;;;4.63;2.80;;;23.30;99.90;;;;;;4967986;28;20404;-77
2022/07/31 00:18:58;;;;;;;3.90;2.77;;;23.20;99.90;;;;;;4975123;28;20201;-77
2022/07/31 00:21:24;;;;;;;3.90;2.60;;;23.20;99.90;;;;;;4955064;28;20645;-77
2022/07/31 00:23:52;;;;;;;4.73;2.40;;;23.20;99.90;;;;;;4968807;28;20763;-76
2022/07/31 00:26:18;;;;;;;8.10;2.70;;;23.20;99.90;;;;;;4983948;28;20278;-77
2022/07/31 00:28:46;;;;;;;3.10;2.70;;;23.00;99.90;;;;;;4966708;28;20194;-77
2022/07/31 00:31:13;;;;;;;3.67;2.73;;;23.10;99.90;;;;;;4967134;28;20196;-77
2022/07/31 00:33:39;;;;;;;7.10;3.00;;;23.10;99.90;;;;;;4967507;28;20194;-77
2022/07/31 00:36:11;;;;;;;4.57;3.00;;;23.00;99.90;;;;;;4951592;28;20190;-77
2022/07/31 00:38:38;;;;;;;4.47;3.03;;;23.00;99.90;;;;;;4950972;28;20181;-76
2022/07/31 00:41:04;;;;;;;5.97;3.30;;;23.00;99.90;;;;;;4978558;28;20198;-77
2022/07/31 00:43:30;;;;;;;7.53;3.57;;;23.00;99.90;;;;;;4959053;28;20253;-77
2022/07/31 00:45:58;;;;;;;7.17;3.70;;;23.00;99.90;;;;;;4968978;28;20190;-77
2022/07/31 00:48:24;;;;;;;11.23;3.60;;;23.00;99.90;;;;;;4966995;28;20304;-77
2022/07/31 00:50:51;;;;;;;10.83;4.00;;;23.00;99.90;;;;;;4952409;28;20186;-77
2022/07/31 00:53:17;;;;;;;11.90;4.10;;;23.00;99.90;;;;;;4969018;28;20198;-77
2022/07/31 00:55:44;;;;;;;8.87;3.97;;;23.00;99.90;;;;;;4967307;28;20209;-77
2022/07/31 00:58:10;;;;;;;7.67;4.60;;;23.00;99.90;;;;;;4966810;28;20310;-76
2022/07/31 01:00:37;;;;;;;7.83;4.50;;;23.10;99.90;;;;;;4962770;28;20202;-77
2022/07/31 01:03:03;;;;;;;9.90;5.17;;;23.10;99.90;;;;;;4962444;28;20284;-77
2022/07/31 01:05:30;;;;;;;9.33;5.60;;;23.10;99.90;;;;;;4968644;28;20670;-77
2022/07/31 01:07:56;;;;;;;9.50;4.80;;;23.10;99.90;;;;;;4968134;28;20198;-77
2022/07/31 01:10:53;;;;;;;9.20;5.20;;;23.10;99.90;;;;;;4973792;28;20209;-76
2022/07/31 01:13:35;;;;;;;8.67;5.70;;;23.20;99.90;;;;;;4966844;28;20202;-77
2022/07/31 01:16:05;;;;;;;11.50;5.77;;;23.20;99.90;;;;;;4983328;28;20748;-76
2022/07/31 01:18:37;;;;;;;11.67;6.00;;;23.20;99.90;;;;;;4966225;28;20198;-77
2022/07/31 01:21:11;;;;;;;11.03;6.27;;;23.20;99.90;;;;;;4967608;28;20277;-77
2022/07/31 01:23:52;;;;;;;11.30;5.60;;;23.20;99.90;;;;;;4967795;28;20190;-77
2022/07/31 01:26:47;;;;;;;8.90;5.90;;;23.10;99.90;;;;;;4968482;28;20257;-77
2022/07/31 01:29:22;;;;;;;12.90;5.97;;;23.00;99.90;;;;;;4967490;28;20678;-77
2022/07/31 01:32:09;;;;;;;8.80;5.90;;;23.00;99.90;;;;;;4949861;28;20931;-77
2022/07/31 01:34:56;;;;;;;10.90;6.03;;;23.00;99.90;;;;;;4966095;28;20611;-77
2022/07/31 01:37:31;;;;;;;10.73;5.83;;;22.90;99.90;;;;;;4950130;28;20657;-77
2022/07/31 01:40:10;;;;;;;8.93;5.77;;;22.80;99.90;;;;;;4967959;28;20832;-77
2022/07/31 01:42:42;;;;;;;9.10;5.50;;;22.80;99.90;;;;;;4938928;28;20214;-77
2022/07/31 01:45:11;;;;;;;8.73;4.83;;;22.80;99.90;;;;;;4968498;28;20206;-77
2022/07/31 01:47:42;;;;;;;5.53;4.20;;;22.80;99.90;;;;;;4965757;28;20867;-77
2022/07/31 01:50:10;;;;;;;6.10;3.60;;;22.80;99.90;;;;;;4950367;28;20218;-77
2022/07/31 01:52:40;;;;;;;4.60;3.47;;;22.70;99.90;;;;;;4966827;28;20208;-77
2022/07/31 01:55:11;;;;;;;5.60;3.63;;;22.60;99.90;;;;;;4949984;28;20685;-77
2022/07/31 01:57:41;;;;;;;7.37;3.53;;;22.60;99.90;;;;;;4966331;28;20684;-77
2022/07/31 02:00:09;;;;;;;6.37;4.10;;;22.60;99.90;;;;;;4967281;28;20191;-77
2022/07/31 02:02:38;;;;;;;9.97;4.30;;;22.50;99.90;;;;;;4960210;28;20215;-77
2022/07/31 02:05:06;;;;;;;8.00;4.00;;;22.50;99.90;;;;;;4965086;28;20765;-77
2022/07/31 02:07:44;;;;;;;7.90;4.97;;;22.50;99.90;;;;;;4967469;28;20217;-76
2022/07/31 02:10:14;;;;;;;8.03;4.90;;;22.40;99.90;;;;;;4968591;28;20174;-76
2022/07/31 02:12:43;;;;;;;7.17;4.73;;;22.30;99.90;;;;;;4979880;28;20276;-76
2022/07/31 02:15:14;;;;;;;8.50;4.80;;;22.40;99.90;;;;;;4969968;28;20751;-76
2022/07/31 02:17:45;;;;;;;8.63;4.93;;;22.40;99.90;;;;;;4958653;28;20804;-76
2022/07/31 02:20:14;;;;;;;6.93;4.80;;;22.40;99.90;;;;;;4952953;28;20190;-76
2022/07/31 02:22:40;;;;;;;10.30;5.17;;;22.40;99.90;;;;;;4952039;28;20253;-76
2022/07/31 02:25:08;;;;;;;12.73;5.07;;;22.40;99.90;;;;;;4972097;28;20197;-76
2022/07/31 02:27:38;;;;;;;10.13;4.93;;;22.40;99.90;;;;;;4969205;28;20786;-76
2022/07/31 02:30:06;;;;;;;12.27;5.10;;;22.30;99.90;;;;;;4970357;28;20216;-77
2022/07/31 02:32:34;;;;;;;7.73;5.10;;;22.30;99.90;;;;;;4969151;28;20185;-76
2022/07/31 02:35:02;;;;;;;14.00;5.10;;;22.30;99.90;;;;;;4969597;28;20194;-76
2022/07/31 02:37:32;;;;;;;10.20;4.97;;;22.20;99.90;;;;;;4982815;28;22134;-76
2022/07/31 02:40:01;;;;;;;8.70;4.80;;;22.20;99.90;;;;;;4960255;28;20746;-76
2022/07/31 02:42:29;;;;;;;10.87;4.87;;;22.20;99.90;;;;;;4951680;28;20214;-76
2022/07/31 02:44:56;;;;;;;10.60;5.10;;;22.20;99.90;;;;;;4989413;28;20221;-76
2022/07/31 02:47:23;;;;;;;10.03;5.00;;;22.20;99.90;;;;;;4976852;28;20197;-76
2022/07/31 02:49:50;;;;;;;9.77;5.17;;;22.10;99.90;;;;;;4972925;28;20186;-76
2022/07/31 02:52:17;;;;;;;8.60;5.43;;;22.00;99.90;;;;;;4966716;28;20194;-77
2022/07/31 02:54:44;;;;;;;8.23;5.10;;;22.00;99.90;;;;;;4989077;28;20681;-76
2022/07/31 02:57:11;;;;;;;7.37;4.93;;;22.00;99.90;;;;;;4977301;28;20197;-76
2022/07/31 02:59:38;;;;;;;8.37;5.07;;;22.00;99.90;;;;;;4960668;28;20207;-76
2022/07/31 03:02:05;;;;;;;9.13;5.30;;;22.00;99.90;;;;;;4972456;28;20392;-77
2022/07/31 03:04:33;;;;;;;7.83;5.30;;;22.00;99.90;;;;;;4976380;28;20189;-76
2022/07/31 03:06:59;;;;;;;8.67;5.17;;;21.90;99.90;;;;;;4987234;28;20252;-76
2022/07/31 03:09:27;;;;;;;8.57;4.60;;;21.90;99.90;;;;;;4971504;28;20222;-76
2022/07/31 03:11:53;;;;;;;10.63;5.47;;;22.00;99.90;;;;;;4967922;28;20281;-76
2022/07/31 03:14:22;;;;;;;8.97;4.70;;;21.90;99.90;;;;;;4981285;28;20179;-76
2022/07/31 03:16:50;;;;;;;9.87;4.27;;;21.90;99.90;;;;;;4955328;28;20189;-76
2022/07/31 03:19:19;;;;;;;8.93;4.57;;;21.90;99.90;;;;;;4960370;28;20285;-76
2022/07/31 03:21:48;;;;;;;6.97;3.87;;;21.90;99.90;;;;;;4969888;28;20229;-76
2022/07/31 03:24:16;;;;;;;8.03;4.23;;;22.00;99.90;;;;;;4987245;28;20248;-76
2022/07/31 03:26:43;;;;;;;8.53;4.37;;;22.00;99.90;;;;;;4971308;28;20182;-76
2022/07/31 03:29:09;;;;;;;6.37;4.03;;;22.00;99.90;;;;;;4985639;28;20269;-76
2022/07/31 03:31:36;;;;;;;7.53;4.57;;;22.10;99.90;;;;;;4971116;28;20580;-76
2022/07/31 03:34:03;;;;;;;7.67;4.03;;;22.20;99.90;;;;;;4972269;28;20187;-76
2022/07/31 03:36:30;;;;;;;7.43;4.10;;;22.20;99.90;;;;;;4972808;28;20228;-76
2022/07/31 03:38:57;;;;;;;11.87;4.60;;;22.20;99.90;;;;;;4972023;28;20202;-76
2022/07/31 03:41:23;;;;;;;5.97;3.97;;;22.20;99.90;;;;;;4936893;28;20233;-76
2022/07/31 03:43:52;;;;;;;10.27;4.27;;;22.30;99.90;;;;;;4972623;28;20240;-76
2022/07/31 03:46:21;;;;;;;7.47;5.00;;;22.30;99.90;;;;;;4987557;28;20236;-76
2022/07/31 03:48:50;;;;;;;12.27;5.10;;;22.30;99.90;;;;;;4972674;28;20178;-76
2022/07/31 03:51:18;;;;;;;10.87;5.23;;;22.30;99.90;;;;;;4980436;28;20564;-76
2022/07/31 03:53:47;;;;;;;8.87;4.37;;;22.30;99.90;;;;;;4979818;28;20632;-76
2022/07/31 03:56:16;;;;;;;6.87;4.87;;;22.30;99.90;;;;;;4971892;28;20337;-76
2022/07/31 03:58:42;;;;;;;8.83;4.50;;;22.30;99.90;;;;;;4943378;28;20183;-76
2022/07/31 04:01:09;;;;;;;10.87;4.77;;;22.30;99.90;;;;;;4969750;28;20277;-76
2022/07/31 04:03:35;;;;;;;8.37;4.70;;;22.30;99.90;;;;;;4986771;28;20186;-76
2022/07/31 04:06:02;;;;;;;13.47;5.27;;;22.30;99.90;;;;;;4972255;28;20201;-76
2022/07/31 04:08:28;;;;;;;9.53;4.83;;;22.30;99.90;;;;;;4954003;28;20190;-76
2022/07/31 04:10:54;;;;;;;6.83;4.60;;;22.30;99.90;;;;;;4985024;28;20194;-76
2022/07/31 04:13:21;;;;;;;12.57;4.90;;;22.40;99.90;;;;;;4986519;28;20217;-76
2022/07/31 04:15:47;;;;;;;6.03;4.30;;;22.40;99.90;;;;;;4972316;28;20233;-76
2022/07/31 04:18:14;;;;;;;7.67;4.23;;;22.30;99.90;;;;;;4990173;28;20201;-76
2022/07/31 04:20:40;;;;;;;6.13;3.73;;;22.30;99.90;;;;;;4982365;28;20268;-76
2022/07/31 04:23:07;;;;;;;10.57;3.63;;;22.40;99.90;;;;;;4970542;28;20218;-76
2022/07/31 04:25:33;;;;;;;8.63;3.33;;;22.40;99.90;;;;;;4970520;28;20196;-76
2022/07/31 04:28:00;;;;;;;8.30;3.43;;;22.40;99.90;;;;;;4972107;28;20178;-76
2022/07/31 04:30:26;;;;;;;8.80;3.60;;;22.50;99.90;;;;;;4986318;28;20645;-76
2022/07/31 04:32:52;;;;;;;5.57;3.63;;;22.50;99.90;;;;;;4989546;28;20272;-76
2022/07/31 04:35:19;;;;;;;5.97;3.33;;;22.60;99.90;;;;;;4974093;28;20185;-76
2022/07/31 04:37:45;;;;;;;7.33;3.80;;;22.70;99.90;;;;;;4964636;28;20189;-76
2022/07/31 04:40:12;;;;;;;7.47;3.70;;;22.80;99.90;;;;;;4970455;28;20274;-76
2022/07/31 04:42:38;;;;;;;5.37;4.13;;;22.90;99.90;;;;;;4970535;28;20213;-77
2022/07/31 04:45:06;;;;;;;6.33;4.20;;;23.00;99.90;;;;;;4986186;28;20288;-76
2022/07/31 04:47:32;;;;;;;10.40;3.90;;;23.00;99.90;;;;;;4989115;28;20316;-77
2022/07/31 04:49:59;;;;;;;6.05;4.25;;;23.10;99.90;;;;;;4990943;28;20632;-76
2022/07/31 04:52:25;;;;;;;7.43;3.90;;;23.10;99.90;;;;;;4988483;28;20192;-76
2022/07/31 04:54:51;;;;;;;9.33;4.30;;;23.20;99.90;;;;;;4957166;28;20689;-76
2022/07/31 04:57:17;;;;;;;8.77;4.23;;;23.30;99.90;;;;;;4987871;28;20188;-76
2022/07/31 04:59:44;;;;;;;6.07;3.95;;;23.30;99.90;;;;;;4984143;28;20845;-76
2022/07/31 05:02:10;;;;;;;8.23;4.13;;;23.40;99.90;;;;;;4975872;28;20301;-76
2022/07/31 05:04:36;;;;;;;12.80;3.70;;;23.50;99.90;;;;;;4969837;28;20642;-76
2022/07/31 05:07:02;;;;;;;7.80;3.90;;;23.50;99.90;;;;;;4970921;28;20309;-76
2022/07/31 05:09:32;;;;;;;5.43;3.40;;;23.60;99.90;;;;;;4970119;28;20694;-76
2022/07/31 05:11:58;;;;;;;6.22;3.50;;;23.70;99.90;;;;;;4970040;28;20186;-76
2022/07/31 05:14:24;;;;;;;7.03;3.83;;;23.80;99.90;;;;;;4971018;28;20201;-76
2022/07/31 05:16:50;;;;;;;10.48;3.92;;;23.90;99.90;;;;;;4956850;28;20235;-76
2022/07/31 05:19:17;;;;;;;5.90;3.70;;;24.00;99.90;;;;;;4983882;28;20200;-76
2022/07/31 05:21:44;;;;;;;6.38;4.00;;;24.00;99.90;;;;;;4989060;28;20255;-76
2022/07/31 05:24:11;;;;;;;6.22;3.92;;;24.10;99.90;;;;;;4970386;28;20582;-76
2022/07/31 05:26:38;;;;;;;6.82;3.78;;;24.20;99.90;;;;;;4989223;28;20210;-76
2022/07/31 05:29:04;;;;;;;4.15;3.70;;;24.30;99.90;;;;;;4974421;28;21052;-76
2022/07/31 05:31:31;;;;;;;7.93;3.58;;;24.30;99.90;;;;;;4984071;28;20237;-76
2022/07/31 05:34:00;;;;;;;8.55;3.78;;;24.40;99.90;;;;;;4985314;28;20189;-76
2022/07/31 05:36:26;;;;;;;8.05;3.60;;;24.50;99.90;;;;;;4970363;28;20186;-76
2022/07/31 05:38:53;;;;;;;5.53;3.53;;;24.50;99.90;;;;;;4969488;28;20261;-76
2022/07/31 05:41:19;;;;;;;5.05;3.35;;;24.60;99.90;;;;;;4967794;28;20193;-77
2022/07/31 05:43:45;;;;;;;6.63;3.90;;;24.60;99.90;;;;;;4971092;28;20201;-76
2022/07/31 05:46:13;;;;;;;8.63;3.60;;;24.70;99.90;;;;;;4988205;28;20616;-76
2022/07/31 05:48:40;;;;;;;7.03;3.40;;;24.70;99.90;;;;;;4980360;28;20245;-76
2022/07/31 05:51:12;;;;;;;7.03;3.58;;;24.80;99.90;;;;;;4969345;28;20194;-77
2022/07/31 05:53:40;;;;;;;5.68;3.55;;;24.80;99.90;;;;;;4970159;28;20182;-76
2022/07/31 05:56:07;;;;;;;5.50;3.40;;;24.90;99.90;;;;;;4968944;28;20217;-76
2022/07/31 05:58:34;;;;;;;4.80;3.22;;;25.00;99.90;;;;;;4958896;28;20232;-76
2022/07/31 06:01:02;;;;;;;8.52;3.65;;;25.00;99.90;;;;;;4980998;28;20186;-76
2022/07/31 06:03:34;;;;;;;8.77;3.70;;;25.10;99.90;;;;;;4982914;28;20204;-76
2022/07/31 06:06:02;;;;;;;6.88;3.58;;;25.20;99.90;;;;;;4971270;28;20266;-76
2022/07/31 06:08:29;;;;;;;14.15;3.72;;;25.20;99.90;;;;;;4960483;28;20325;-76
2022/07/31 06:10:56;;;;;;;8.60;3.70;;;25.20;99.90;;;;;;4970990;28;20190;-76
2022/07/31 06:13:29;;;;;;;13.27;4.00;;;25.30;99.90;;;;;;4987636;28;20190;-77
2022/07/31 06:15:55;;;;;;;7.78;3.85;;;25.30;99.90;;;;;;4983958;28;20200;-76
2022/07/31 06:18:22;;;;;;;6.82;3.38;;;25.40;99.90;;;;;;4973058;28;20181;-76
2022/07/31 06:20:49;;;;;;;7.95;3.47;;;25.40;99.90;;;;;;4962762;28;20551;-77
2022/07/31 06:23:15;;;;;;;6.38;3.28;;;25.50;99.90;;;;;;4979556;28;20217;-77
2022/07/31 06:25:41;;;;;;;5.00;3.15;;;25.60;99.90;;;;;;4984986;28;20189;-77
2022/07/31 06:28:08;;;;;;;8.25;3.13;;;25.70;99.90;;;;;;4982323;28;20240;-76
2022/07/31 06:30:34;;;;;;;4.75;3.22;;;25.80;99.90;;;;;;4970319;28;20666;-76
2022/07/31 06:33:00;;;;;;;5.20;3.42;;;25.90;99.90;;;;;;4970400;28;20264;-77
2022/07/31 06:35:26;;;;;;;6.65;3.33;;;26.00;99.90;;;;;;4985305;28;20573;-77
2022/07/31 06:37:53;;;;;;;6.45;3.25;;;26.10;99.90;;;;;;4988718;28;20212;-77
2022/07/31 06:40:19;;;;;;;5.75;3.10;;;26.20;99.90;;;;;;4969410;28;20226;-77
2022/07/31 06:42:46;;;;;;;6.63;3.20;;;26.30;99.90;;;;;;4984593;28;20206;-77
2022/07/31 06:45:13;;;;;;;5.22;3.13;;;26.40;99.90;;;;;;4968776;28;20649;-77
2022/07/31 06:47:40;;;;;;;8.55;3.50;;;26.40;99.90;;;;;;4970397;28;20182;-76
2022/07/31 06:50:10;;;;;;;7.60;3.80;;;26.50;99.70;;;;;;4983113;28;20277;-76
2022/07/31 06:52:37;;;;;;;5.00;3.25;;;26.60;99.90;;;;;;4969357;28;20782;-77
2022/07/31 06:55:05;;;;;;;8.52;3.70;;;26.70;99.90;;;;;;4952764;28;20225;-77
2022/07/31 06:57:32;;;;;;;5.05;3.40;;;26.80;99.10;;;;;;4957640;28;20185;-76
2022/07/31 06:59:58;;;;;;;5.25;3.03;;;26.90;99.50;;;;;;4972494;28;20186;-77
2022/07/31 07:02:25;;;;;;;7.10;3.42;;;26.90;99.00;;;;;;4949669;28;20214;-76
2022/07/31 07:04:51;;;;;;;7.90;3.45;;;27.00;98.30;;;;;;4974593;28;20674;-76
2022/07/31 07:07:17;;;;;;;6.80;3.15;;;27.10;97.70;;;;;;4984610;28;20562;-76
2022/07/31 07:09:44;;;;;;;4.38;2.78;;;27.10;97.90;;;;;;4977870;28;20416;-76
2022/07/31 07:12:10;;;;;;;8.05;3.20;;;27.30;96.80;;;;;;4972356;28;20273;-76
2022/07/31 07:14:36;;;;;;;7.38;3.50;;;27.40;96.50;;;;;;4969809;28;20214;-76
2022/07/31 07:17:06;;;;;;;6.35;3.13;;;27.40;96.40;;;;;;4970523;28;20187;-76
2022/07/31 07:19:33;;;;;;;8.35;3.70;;;27.40;96.50;;;;;;4975234;28;20190;-76
2022/07/31 07:22:40;;;;;;;7.22;3.17;;;27.50;95.80;;;;;;4984946;28;20213;-76
2022/07/31 07:25:07;;;;;;;9.60;3.50;;;27.70;97.20;;;;;;4956351;28;20186;-77
2022/07/31 07:27:33;;;;;;;10.93;3.30;;;27.80;97.50;;;;;;4985948;28;20263;-76
2022/07/31 07:30:00;;;;;;;8.88;3.28;;;27.90;97.70;;;;;;4969332;28;20277;-76
2022/07/31 07:32:27;;;;;;;8.95;3.47;;;28.00;99.60;;;;;;4983110;28;20182;-76
2022/07/31 07:34:53;;;;;;;6.82;3.50;;;28.10;98.70;;;;;;4956100;28;20178;-77
2022/07/31 07:37:19;;;;;;;7.70;3.53;;;28.20;98.20;;;;;;4980007;28;20225;-77
2022/07/31 07:39:46;;;;;;;8.73;3.78;;;28.30;99.00;;;;;;4982236;28;20268;-76
2022/07/31 07:42:13;;;;;;;10.40;3.90;;;28.40;99.90;;;;;;4970433;28;20249;-77
2022/07/31 07:44:39;;;;;;;7.70;4.40;;;28.40;99.90;;;;;;4957169;28;20242;-76
2022/07/31 07:47:07;;;;;;;9.85;3.97;;;28.60;99.90;;;;;;4956756;28;20178;-76
2022/07/31 07:49:34;;;;;;;6.10;3.60;;;28.70;99.90;;;;;;4987743;28;20277;-77
2022/07/31 07:52:01;;;;;;;7.65;4.30;;;28.70;99.90;;;;;;4972580;28;20198;-77
2022/07/31 07:54:28;;;;;;;12.40;3.83;;;28.90;99.90;;;;;;4973244;28;20185;-77
2022/07/31 07:56:55;;;;;;;14.45;4.40;;;29.00;99.90;;;;;;4974736;28;20587;-77
2022/07/31 07:59:22;;;;;;;16.02;4.90;;;29.10;99.90;;;;;;4989222;28;20273;-77
2022/07/31 08:01:49;;;;;;;9.88;4.00;;;29.20;99.90;;;;;;4979556;28;20272;-77
2022/07/31 08:04:16;;;;;;;10.70;3.95;;;29.20;99.90;;;;;;4954165;28;20206;-77
2022/07/31 08:06:42;;;;;;;10.52;4.22;;;29.20;99.90;;;;;;4962285;28;20232;-77
2022/07/31 08:09:09;;;;;;;8.10;3.40;;;29.30;99.90;;;;;;4961424;28;20210;-76
2022/07/31 08:11:35;;;;;;;8.63;4.22;;;29.30;99.90;;;;;;4963038;28;20682;-77
2022/07/31 08:14:01;;;;;;;14.10;4.60;;;29.40;99.90;;;;;;4961346;28;22340;-77
2022/07/31 08:16:28;;;;;;;9.40;4.10;;;29.50;99.90;;;;;;4961988;28;20665;-77
2022/07/31 08:18:54;;;;;;;10.35;4.25;;;29.60;99.90;;;;;;4960711;28;20241;-77
2022/07/31 08:21:20;;;;;;;10.70;3.78;;;29.70;99.90;;;;;;4962073;28;20317;-76
2022/07/31 08:23:47;;;;;;;12.20;4.32;;;29.80;99.90;;;;;;4963036;28;20575;-77
2022/07/31 08:26:14;;;;;;;12.95;4.45;;;29.90;99.90;;;;;;4961292;28;20221;-77
2022/07/31 08:28:41;;;;;;;10.70;4.78;;;30.00;99.90;;;;;;4944986;28;20293;-77
2022/07/31 08:31:09;;;;;;;10.00;4.50;;;30.10;99.90;;;;;;4960163;28;20205;-76
2022/07/31 08:33:35;;;;;;;13.05;4.68;;;30.20;99.90;;;;;;4962595;28;20210;-77
2022/07/31 08:36:03;;;;;;;14.20;5.22;;;30.30;99.90;;;;;;4976202;28;20204;-77
2022/07/31 08:38:29;;;;;;;11.15;4.68;;;30.40;99.90;;;;;;4966159;28;20224;-76
2022/07/31 08:40:56;;;;;;;11.63;5.13;;;30.40;99.90;;;;;;4960317;28;20214;-76
2022/07/31 08:43:22;;;;;;;12.10;5.25;;;30.50;99.90;;;;;;4968259;28;20308;-76
2022/07/31 08:45:51;;;;;;;9.63;4.68;;;30.60;99.90;;;;;;4960886;28;20380;-77
2022/07/31 08:48:24;;;;;;;13.52;4.80;;;30.70;99.90;;;;;;4946282;28;20198;-77
2022/07/31 08:50:53;;;;;;;12.65;5.10;;;30.80;99.90;;;;;;4960072;28;20209;-76
2022/07/31 08:53:22;;;;;;;15.05;4.75;;;30.90;99.90;;;;;;4962272;28;20202;-77
2022/07/31 08:55:49;;;;;;;15.18;5.40;;;31.00;99.90;;;;;;4966728;28;20240;-77
2022/07/31 08:58:18;;;;;;;15.93;5.55;;;31.00;99.90;;;;;;4956310;28;20302;-76
2022/07/31 09:00:45;;;;;;;10.43;4.82;;;31.10;99.90;;;;;;4959789;28;20681;-76
2022/07/31 09:03:12;;;;;;;11.73;5.20;;;31.20;99.90;;;;;;4975639;28;20218;-77
2022/07/31 09:05:39;;;;;;;14.13;5.18;;;31.30;99.90;;;;;;4944170;28;20305;-77
2022/07/31 09:08:06;;;;;;;14.38;6.18;;;31.30;99.90;;;;;;4960413;28;20264;-77
2022/07/31 09:10:32;;;;;;;15.02;5.45;;;31.40;99.90;;;;;;4960911;28;20195;-76
2022/07/31 09:12:58;;;;;;;14.43;5.00;;;31.50;99.90;;;;;;4959856;28;20213;-76
2022/07/31 09:15:28;;;;;;;13.57;5.65;;;31.70;99.90;;;;;;4960378;28;20222;-76
2022/07/31 09:17:56;;;;;;;14.13;5.50;;;31.70;99.90;;;;;;4952158;28;20666;-76
2022/07/31 09:20:27;;;;;;;12.82;5.45;;;31.80;99.90;;;;;;4958760;28;20531;-76
2022/07/31 09:23:05;;;;;;;16.75;5.38;;;31.80;99.90;;;;;;4960317;28;21495;-76
2022/07/31 09:25:32;;;;;;;13.05;5.18;;;31.90;99.90;;;;;;4962074;28;20198;-76
2022/07/31 09:28:06;;;;;;;14.85;4.80;;;31.90;99.90;;;;;;4988071;28;20229;-76
2022/07/31 09:30:33;;;;;;;13.65;5.40;;;32.10;99.90;;;;;;4991481;28;20208;-76
2022/07/31 09:33:17;;;;;;;17.50;5.22;;;32.00;99.90;;;;;;4968674;28;20214;-76
2022/07/31 09:35:51;;;;;;;15.32;5.80;;;32.10;99.90;;;;;;4957668;28;20218;-77
2022/07/31 09:38:22;;;;;;;14.82;5.53;;;32.20;99.90;;;;;;4961016;28;20214;-76
2022/07/31 09:40:50;;;;;;;13.38;5.22;;;32.20;99.90;;;;;;4964276;28;20210;-76
2022/07/31 09:43:23;;;;;;;14.10;5.10;;;32.40;99.90;;;;;;4940626;28;20245;-76
2022/07/31 09:46:03;;;;;;;16.00;5.30;;;32.40;99.90;;;;;;4954541;28;20207;-76
2022/07/31 09:48:34;;;;;;;16.33;5.32;;;32.50;99.90;;;;;;4944479;28;20206;-76
2022/07/31 09:51:07;;;;;;;11.40;5.00;;;32.60;99.90;;;;;;4955378;28;20218;-76
2022/07/31 09:53:55;;;;;;;14.52;5.00;;;32.70;99.90;;;;;;4961558;28;20741;-76
2022/07/31 09:56:34;;;;;;;13.85;5.55;;;32.80;99.90;;;;;;4962052;28;20290;-76
2022/07/31 09:59:02;;;;;;;14.20;5.90;;;32.80;99.90;;;;;;4955702;28;20719;-76
2022/07/31 10:01:31;;;;;;;16.77;5.47;;;32.80;99.90;;;;;;4956955;28;20344;-77
2022/07/31 10:04:04;;;;;;;15.93;4.97;;;32.80;99.90;;;;;;4963464;28;20198;-76
2022/07/31 10:06:34;;;;;;;10.73;5.28;;;32.80;99.90;;;;;;4964329;28;20224;-76
2022/07/31 10:09:04;;;;;;;19.95;5.28;;;32.90;99.90;;;;;;4975824;28;20673;-76
2022/07/31 10:11:33;;;;;;;13.93;5.35;;;32.90;99.90;;;;;;4961178;28;20713;-76
2022/07/31 10:14:02;;;;;;;14.25;5.47;;;33.00;99.90;;;;;;4959596;28;20194;-76
2022/07/31 10:16:35;;;;;;;16.35;5.53;;;33.00;99.90;;;;;;4961757;28;20316;-76
2022/07/31 10:19:10;;;;;;;14.57;4.95;;;33.10;99.90;;;;;;4961312;28;20285;-76
2022/07/31 10:21:51;;;;;;;17.95;5.63;;;33.30;99.90;;;;;;4970422;28;20201;-76
2022/07/31 10:24:21;;;;;;;24.13;5.47;;;33.20;99.90;;;;;;4963635;28;20298;-76
2022/07/31 10:26:51;;;;;;;16.77;5.70;;;33.20;99.90;;;;;;4961042;28;20559;-76
2022/07/31 10:29:30;;;;;;;13.80;5.18;;;33.30;99.90;;;;;;4961836;28;20202;-76
2022/07/31 10:31:57;;;;;;;14.27;5.00;;;33.40;99.90;;;;;;4976900;28;20233;-76
2022/07/31 10:34:25;;;;;;;13.57;5.22;;;33.30;99.90;;;;;;4950106;28;20214;-76
2022/07/31 10:37:06;;;;;;;10.30;4.57;;;33.40;99.90;;;;;;4962428;28;20958;-76
2022/07/31 10:40:09;;;;;;;12.23;4.65;;;33.60;99.90;;;;;;4962659;28;20233;-76
2022/07/31 10:43:14;;;;;;;11.63;5.00;;;33.50;99.90;;;;;;4953642;28;20265;-76
2022/07/31 10:45:50;;;;;;;23.30;5.15;;;33.40;99.90;;;;;;4954711;28;20682;-76
2022/07/31 10:48:18;;;;;;;10.43;4.55;;;33.50;99.90;;;;;;4962311;28;20206;-76
2022/07/31 10:50:46;;;;;;;16.20;5.22;;;33.40;99.90;;;;;;4961916;28;20578;-76
2022/07/31 10:53:20;;;;;;;15.38;4.65;;;33.40;99.90;;;;;;4961732;28;20214;-76
2022/07/31 10:55:46;;;;;;;11.05;4.53;;;33.60;99.90;;;;;;4943884;28;20761;-76
2022/07/31 10:58:18;;;;;;;15.82;5.07;;;33.60;99.90;;;;;;4957933;28;21319;-76
2022/07/31 11:00:50;;;;;;;13.38;4.85;;;33.70;99.90;;;;;;4966576;28;20301;-76
2022/07/31 11:03:19;;;;;;;16.77;4.93;;;33.80;99.90;;;;;;4977025;28;20221;-76
2022/07/31 11:05:58;;;;;;;12.18;4.85;;;33.70;99.90;;;;;;4967896;28;20304;-76
2022/07/31 11:08:25;;;;;;;11.77;4.40;;;33.70;99.90;;;;;;4965757;28;20586;-76
2022/07/31 11:10:55;;;;;;;11.02;4.38;;;33.60;99.90;;;;;;4968631;28;20206;-76
2022/07/31 11:13:24;;;;;;;14.90;4.57;;;33.50;99.90;;;;;;4972879;28;20205;-76
2022/07/31 11:16:03;;;;;;;14.35;4.35;;;33.50;99.90;;;;;;4978544;28;20198;-76
2022/07/31 11:18:30;;;;;;;12.65;4.22;;;33.50;99.90;;;;;;4971491;28;20240;-77
2022/07/31 11:21:02;;;;;;;15.50;5.28;;;33.70;99.90;;;;;;4972252;28;20194;-77
2022/07/31 11:23:32;;;;;;;18.13;5.22;;;33.80;99.90;;;;;;4973247;28;20218;-76
2022/07/31 11:26:05;;;;;;;17.17;4.88;;;33.70;99.90;;;;;;4971906;28;20659;-76
2022/07/31 11:28:34;;;;;;;12.45;5.10;;;33.50;99.90;;;;;;4972161;28;20620;-76
2022/07/31 11:31:06;;;;;;;11.82;4.70;;;33.50;99.90;;;;;;4956020;28;20261;-76
2022/07/31 11:33:39;;;;;;;9.88;4.32;;;33.40;99.90;;;;;;4987620;28;20186;-76
2022/07/31 11:36:07;;;;;;;10.82;4.55;;;33.30;99.90;;;;;;4971482;28;20667;-76
2022/07/31 11:38:40;;;;;;;11.30;4.38;;;33.30;99.90;;;;;;4966236;28;20294;-76
2022/07/31 11:41:07;;;;;;;11.93;4.28;;;33.30;99.90;;;;;;4972383;28;20202;-76
2022/07/31 11:43:41;;;;;;;11.98;4.75;;;33.30;99.90;;;;;;4972664;28;20542;-76
2022/07/31 11:46:11;;;;;;;13.73;4.45;;;33.30;99.90;;;;;;4972753;28;20289;-76
2022/07/31 11:48:39;;;;;;;13.27;4.72;;;33.30;99.90;;;;;;4972786;28;20182;-76
2022/07/31 11:51:08;;;;;;;15.20;5.00;;;33.30;99.90;;;;;;4971646;28;20194;-77
2022/07/31 11:53:41;;;;;;;7.95;4.28;;;33.40;99.90;;;;;;4972695;28;20194;-76
2022/07/31 11:56:12;;;;;;;16.90;4.90;;;33.50;99.90;;;;;;4972282;28;20277;-76
2022/07/31 11:58:46;;;;;;;9.60;4.35;;;33.40;99.90;;;;;;4972511;28;20253;-76
2022/07/31 12:01:12;;;;;;;10.68;3.92;;;33.30;99.70;;;;;;4972003;28;20190;-76
2022/07/31 12:03:39;;;;;;;10.48;3.88;;;33.30;99.50;;;;;;4955185;28;20202;-76
2022/07/31 12:06:11;;;;;;;6.72;3.55;;;33.30;98.20;;;;;;4955034;28;20201;-76
2022/07/31 12:08:39;;;;;;;16.58;3.92;;;33.20;97.90;;;;;;4972023;28;20693;-76
2022/07/31 12:11:08;;;;;;;8.80;3.65;;;33.10;97.70;;;;;;4954256;28;20618;-76
2022/07/31 12:13:34;;;;;;;13.10;4.45;;;33.10;98.10;;;;;;4966758;28;20439;-76
2022/07/31 12:16:10;;;;;;;8.40;3.80;;;33.10;97.20;;;;;;4985517;28;20190;-76
2022/07/31 12:19:00;;;;;;;7.03;3.40;;;33.30;97.20;;;;;;4972151;28;20190;-76
2022/07/31 12:21:38;;;;;;;7.97;3.70;;;33.20;96.40;;;;;;4986578;28;20627;-76
2022/07/31 12:24:13;;;;;;;14.60;4.15;;;33.10;96.60;;;;;;4972445;28;20193;-76
2022/07/31 12:26:49;;;;;;;13.73;4.38;;;33.10;96.40;;;;;;4954739;28;20266;-76
2022/07/31 12:29:17;;;;;;;8.63;3.97;;;33.10;96.20;;;;;;4986425;28;20186;-76
2022/07/31 12:31:54;;;;;;;10.32;3.88;;;33.20;94.70;;;;;;4970797;28;20602;-76
2022/07/31 12:34:34;;;;;;;9.30;4.05;;;33.10;94.40;;;;;;4990399;28;20670;-77
2022/07/31 12:37:15;;;;;;;8.52;3.47;;;33.10;93.70;;;;;;4973798;28;20186;-76
2022/07/31 12:39:58;;;;;;;6.70;2.97;;;33.10;92.80;;;;;;4972605;28;20280;-76
2022/07/31 12:42:33;;;;;;;9.48;3.58;;;32.90;93.10;;;;;;4971187;28;20686;-76
2022/07/31 12:45:04;;;;;;;5.70;3.42;;;33.00;93.50;;;;;;4973372;28;20206;-77
2022/07/31 12:47:33;;;;;;;10.15;3.53;;;33.00;93.40;;;;;;4972689;28;20243;-76
2022/07/31 12:50:02;;;;;;;9.00;3.33;;;32.90;93.40;;;;;;4954829;28;20277;-76
2022/07/31 12:52:30;;;;;;;9.05;3.58;;;32.90;93.80;;;;;;4971788;28;20278;-76
2022/07/31 12:54:57;;;;;;;9.45;3.95;;;33.00;93.80;;;;;;4970708;28;20692;-77